WEATHER FORECAST DUBAI WORLD CENTRAL
 
Sunday, June 24, 2018 (01:19 UTC)
Al Maktoum International Airport
Last Updated: 24-Jun-2018 (01:17Z)
Wind Dir/Speed: SSE at 06 kt
Temperature: 26.9°C
Rel. Humidity: 88 %
Pressure: 1001.1 hPa
Visibility: 5000 m
  • METAR OMDW 240100Z 17005KT 7000 NSC 27/25 Q1000 NOSIG
DWC AIRPORT WEATHER FORECAST FOR 30 HOUR:
DWC TAF:
TAF OMDW 232253Z 2400/2506 19005KT 8000 NSC 
 PROB30 2401/2404 4000 HZ 
 BECMG 2405/2407 30014KT 
 BECMG 2418/2420 19005KT 
 PROB30 2501/2504 4000 HZ 
 BECMG 2505/2506 30012KT=
VALID FROM:
2018-06-24 00:00Z
VALID TILL:
2018-06-25 06:00Z
SURFACE WIND:
S'LY 05KT

BECOMING WNW'LY 14KT FROM 0500Z-0700Z TODAY

BECOMING S'LY 05KT FROM 1800Z-2000Z TODAY

BECOMING WNW'LY 12KT FROM 0500Z-0600Z MONDAY.
VISIBILITY:
07-10 KM,
30% PROBABILITY OF 4000 M BETWEEN 0100Z-0400Z TODAY,
30% PROBABILITY OF 4000 M BETWEEN 0100Z-0400Z MONDAY.
WEATHER:
FINE,
30% PROBABILITY OF HAZE BETWEEN 0100Z-0400Z TODAY,
30% PROBABILITY OF HAZE BETWEEN 0100Z-0400Z MONDAY
CLOUD:
NIL SIGNIFICANT.
TEMPERATURE:
MIN TEMPERATURE 27°C AROUND 0230Z TODAY

MAX TEMPERATURE 40°C AROUND 0900Z TODAY

MIN TEMPERATURE 27°C AROUND 0230Z MONDAY.
HUMIDITY:
MAX HUMIDITY 90% AROUND 0230Z TODAY

MIN HUMIDITY 30% AROUND 0900Z TODAY

MAX HUMIDITY 90% AROUND 0230Z MONDAY.
WIND SHEAR:
NIL SIGNIFICANT.
TEMPERATURE INVERSION:
RISK OF 08°C SURFACE TEMPERATURE INVERSION BETWEEN 0000Z-0330Z TODAY.
COMMENTS:
NIL.